createdAt,value
2017-08-31T00:00:53.072Z,0
2017-08-31T00:01:53.039Z,0
2017-08-31T00:02:52.700Z,0
2017-08-31T00:03:52.375Z,0
2017-08-31T00:04:53.053Z,0
2017-08-31T00:05:52.994Z,0
2017-08-31T00:06:53.183Z,0
2017-08-31T00:07:52.658Z,0
2017-08-31T00:08:53.287Z,0
2017-08-31T00:09:52.635Z,0
2017-08-31T00:10:53.265Z,0
2017-08-31T00:11:52.937Z,0
2017-08-31T00:12:52.932Z,0
2017-08-31T00:13:52.919Z,0
2017-08-31T00:14:52.909Z,0
2017-08-31T00:15:52.908Z,0
2017-08-31T00:16:52.889Z,0
2017-08-31T00:17:52.895Z,0
2017-08-31T00:18:52.545Z,0
2017-08-31T00:19:52.537Z,0
2017-08-31T00:20:52.850Z,0
2017-08-31T00:21:52.517Z,0
2017-08-31T00:22:53.161Z,0
2017-08-31T00:23:52.824Z,0
2017-08-31T00:24:53.463Z,0
2017-08-31T00:25:53.116Z,0
2017-08-31T00:26:53.445Z,0
2017-08-31T00:27:53.107Z,0
2017-08-31T00:28:52.451Z,0
2017-08-31T00:29:53.075Z,0
2017-08-31T00:30:52.752Z,0
2017-08-31T00:31:53.384Z,0
2017-08-31T00:32:52.721Z,0
2017-08-31T00:33:52.401Z,0
2017-08-31T00:34:52.708Z,0
2017-08-31T00:35:53.068Z,0
2017-08-31T00:36:52.370Z,0
2017-08-31T00:37:53.033Z,0
2017-08-31T00:38:52.996Z,0
2017-08-31T00:39:52.975Z,0
2017-08-31T00:40:53.297Z,0
2017-08-31T00:41:52.960Z,0
2017-08-31T00:42:52.958Z,0
2017-08-31T00:43:52.300Z,0
2017-08-31T00:44:52.941Z,0
2017-08-31T00:45:52.280Z,0
2017-08-31T00:46:52.592Z,0
2017-08-31T00:47:52.927Z,0
2017-08-31T00:48:52.892Z,0
2017-08-31T00:49:52.557Z,0
2017-08-31T00:50:52.560Z,0
2017-08-31T00:51:52.539Z,0
2017-08-31T00:52:52.532Z,0
2017-08-31T00:53:52.841Z,0
2017-08-31T00:54:52.514Z,0
2017-08-31T00:55:52.185Z,0
2017-08-31T00:56:52.816Z,0
2017-08-31T00:57:52.162Z,0
2017-08-31T00:58:52.150Z,0
2017-08-31T00:59:52.791Z,0
2017-08-31T01:00:52.827Z,0
2017-08-31T01:01:51.805Z,0
2017-08-31T01:02:52.766Z,0
2017-08-31T01:03:52.106Z,0
2017-08-31T01:04:52.417Z,0
2017-08-31T01:05:52.082Z,0
2017-08-31T01:06:52.761Z,0
2017-08-31T01:07:52.420Z,0
2017-08-31T01:08:53.064Z,0
2017-08-31T01:09:52.399Z,0
2017-08-31T01:10:52.772Z,0
2017-08-31T01:11:52.026Z,0
2017-08-31T01:12:52.976Z,0
2017-08-31T01:13:52.007Z,0
2017-08-31T01:14:52.023Z,0
2017-08-31T01:15:52.626Z,0
2017-08-31T01:16:52.294Z,0
2017-08-31T01:17:52.604Z,0
2017-08-31T01:18:52.280Z,0
2017-08-31T01:19:51.948Z,0
2017-08-31T01:20:52.311Z,0
2017-08-31T01:21:52.932Z,0
2017-08-31T01:22:52.556Z,0
2017-08-31T01:23:51.917Z,0
2017-08-31T01:24:51.573Z,0
2017-08-31T01:25:52.843Z,0
2017-08-31T01:26:52.202Z,0
2017-08-31T01:27:52.218Z,0
2017-08-31T01:28:52.498Z,0
2017-08-31T01:29:51.849Z,0
2017-08-31T01:30:52.155Z,0
2017-08-31T01:31:52.152Z,0
2017-08-31T01:32:52.459Z,0
2017-08-31T01:33:52.133Z,0
2017-08-31T01:34:52.124Z,0
2017-08-31T01:35:52.117Z,0
2017-08-31T01:36:51.787Z,0
2017-08-31T01:37:52.411Z,0
2017-08-31T01:38:51.763Z,0
2017-08-31T01:39:52.393Z,0
2017-08-31T01:40:52.383Z,0
2017-08-31T01:41:51.732Z,0
2017-08-31T01:42:52.035Z,0
2017-08-31T01:43:52.364Z,0
2017-08-31T01:44:52.024Z,0
2017-08-31T01:45:52.378Z,0
2017-08-31T01:46:52.318Z,0
2017-08-31T01:47:51.672Z,0
2017-08-31T01:48:52.301Z,0
2017-08-31T01:49:52.305Z,0
2017-08-31T01:50:51.965Z,0
2017-08-31T01:51:51.953Z,0
2017-08-31T01:52:52.796Z,0
2017-08-31T01:53:52.253Z,0
2017-08-31T01:54:52.244Z,0
2017-08-31T01:55:51.921Z,0
2017-08-31T01:56:51.903Z,0
2017-08-31T01:57:52.213Z,0
2017-08-31T01:58:51.268Z,0
2017-08-31T01:59:51.565Z,0
2017-08-31T02:00:51.552Z,0
2017-08-31T02:01:51.857Z,0
2017-08-31T02:02:52.163Z,0
2017-08-31T02:03:51.526Z,0
2017-08-31T02:04:52.474Z,0
2017-08-31T02:05:51.822Z,0
2017-08-31T02:06:52.213Z,0
2017-08-31T02:07:51.798Z,0
2017-08-31T02:08:51.475Z,0
2017-08-31T02:09:52.419Z,0
2017-08-31T02:10:51.767Z,0
2017-08-31T02:11:51.759Z,0
2017-08-31T02:12:51.752Z,0
2017-08-31T02:13:52.056Z,0
2017-08-31T02:14:52.372Z,0
2017-08-31T02:15:52.041Z,0
2017-08-31T02:16:52.355Z,0
2017-08-31T02:17:52.018Z,0
2017-08-31T02:18:51.685Z,0
2017-08-31T02:19:52.001Z,0
2017-08-31T02:20:52.035Z,0
2017-08-31T02:21:51.658Z,0
2017-08-31T02:22:51.970Z,0
2017-08-31T02:23:51.961Z,0
2017-08-31T02:24:51.307Z,0
2017-08-31T02:25:50.974Z,0
2017-08-31T02:26:51.607Z,0
2017-08-31T02:27:51.913Z,0
2017-08-31T02:28:51.941Z,0
2017-08-31T02:29:51.257Z,0
2017-08-31T02:30:51.947Z,0
2017-08-31T02:31:50.920Z,0
2017-08-31T02:32:51.864Z,0
2017-08-31T02:33:51.541Z,0
2017-08-31T02:34:51.866Z,0
2017-08-31T02:35:51.529Z,0
2017-08-31T02:36:51.841Z,0
2017-08-31T02:37:51.813Z,0
2017-08-31T02:38:52.134Z,0
2017-08-31T02:39:52.122Z,0
2017-08-31T02:40:51.799Z,0
2017-08-31T02:41:51.467Z,0
2017-08-31T02:42:51.770Z,0
2017-08-31T02:43:52.094Z,0
2017-08-31T02:44:51.972Z,0
2017-08-31T02:45:51.421Z,0
2017-08-31T02:46:51.749Z,0
2017-08-31T02:47:51.418Z,0
2017-08-31T02:48:51.393Z,0
2017-08-31T02:49:51.701Z,0
2017-08-31T02:50:51.738Z,0
2017-08-31T02:51:51.679Z,0
2017-08-31T02:52:51.363Z,0
2017-08-31T02:53:51.655Z,0
2017-08-31T02:54:51.000Z,0
2017-08-31T02:55:51.362Z,0
2017-08-31T02:56:50.985Z,0
2017-08-31T02:57:51.653Z,0
2017-08-31T02:58:51.614Z,0
2017-08-31T02:59:50.962Z,0
2017-08-31T03:00:51.586Z,0
2017-08-31T03:01:51.256Z,0
2017-08-31T03:02:51.563Z,0
2017-08-31T03:03:51.237Z,0
2017-08-31T03:04:50.920Z,0
2017-08-31T03:05:50.902Z,0
2017-08-31T03:06:51.206Z,0
2017-08-31T03:07:51.202Z,0
2017-08-31T03:08:51.188Z,0
2017-08-31T03:09:51.173Z,0
2017-08-31T03:10:51.484Z,0
2017-08-31T03:11:51.471Z,0
2017-08-31T03:12:51.782Z,0
2017-08-31T03:13:50.813Z,0
2017-08-31T03:14:51.125Z,0
2017-08-31T03:15:51.437Z,0
2017-08-31T03:16:51.148Z,0
2017-08-31T03:17:51.103Z,0
2017-08-31T03:18:50.752Z,0
2017-08-31T03:19:51.388Z,0
2017-08-31T03:20:51.064Z,0
2017-08-31T03:21:51.376Z,0
2017-08-31T03:22:50.715Z,0
2017-08-31T03:23:51.023Z,0
2017-08-31T03:24:51.335Z,0
2017-08-31T03:25:51.333Z,0
2017-08-31T03:26:50.672Z,0
2017-08-31T03:27:50.983Z,0
2017-08-31T03:28:51.294Z,0
2017-08-31T03:29:50.964Z,0
2017-08-31T03:30:50.334Z,0
2017-08-31T03:31:50.992Z,0
2017-08-31T03:32:50.939Z,0
2017-08-31T03:33:51.238Z,0
2017-08-31T03:34:51.233Z,0
2017-08-31T03:35:50.898Z,0
2017-08-31T03:36:50.572Z,0
2017-08-31T03:37:51.202Z,0
2017-08-31T03:38:51.188Z,0
2017-08-31T03:39:50.212Z,0
2017-08-31T03:40:50.203Z,0
2017-08-31T03:41:51.153Z,0
2017-08-31T03:42:51.142Z,0
2017-08-31T03:43:50.491Z,0
2017-08-31T03:44:51.122Z,0
2017-08-31T03:45:51.437Z,0
2017-08-31T03:46:51.103Z,0
2017-08-31T03:47:51.092Z,0
2017-08-31T03:48:51.081Z,0
2017-08-31T03:49:50.442Z,0
2017-08-31T03:50:50.095Z,0
2017-08-31T03:51:50.407Z,0
2017-08-31T03:52:51.081Z,0
2017-08-31T03:53:51.022Z,0
2017-08-31T03:54:50.367Z,0
2017-08-31T03:55:50.361Z,0
2017-08-31T03:56:50.668Z,0
2017-08-31T03:57:50.981Z,0
2017-08-31T03:58:50.649Z,0
2017-08-31T03:59:50.637Z,0
2017-08-31T04:00:50.632Z,0
2017-08-31T04:01:50.980Z,0
2017-08-31T04:02:49.969Z,0
2017-08-31T04:03:50.965Z,0
2017-08-31T04:04:50.610Z,0
2017-08-31T04:05:50.577Z,0
2017-08-31T04:06:50.248Z,0
2017-08-31T04:22:25.691Z,0
2017-08-31T04:23:08.101Z,0
2017-08-31T04:24:07.788Z,0
2017-08-31T04:25:07.751Z,0
2017-08-31T04:26:07.419Z,0
2017-08-31T04:27:07.421Z,0
2017-08-31T04:28:07.392Z,0
2017-08-31T04:29:08.026Z,0
2017-08-31T04:30:07.733Z,0
2017-08-31T04:31:07.684Z,0
2017-08-31T04:32:07.668Z,0
2017-08-31T04:33:07.662Z,0
2017-08-31T04:34:07.654Z,0
2017-08-31T04:35:07.952Z,0
2017-08-31T04:36:07.312Z,0
2017-08-31T04:37:07.294Z,0
2017-08-31T04:38:07.927Z,0
2017-08-31T04:39:06.951Z,0
2017-08-31T04:40:07.906Z,0
2017-08-31T04:41:07.245Z,0
2017-08-31T04:42:07.875Z,0
2017-08-31T04:43:07.946Z,0
2017-08-31T04:44:08.188Z,0
2017-08-31T04:45:08.170Z,0
2017-08-31T04:46:07.834Z,0
2017-08-31T04:47:07.497Z,0
2017-08-31T04:48:07.221Z,0
2017-08-31T04:49:07.160Z,0
2017-08-31T04:50:07.165Z,0
2017-08-31T04:51:06.817Z,0
2017-08-31T04:52:07.765Z,0
2017-08-31T04:53:07.486Z,0
2017-08-31T04:54:07.103Z,0
2017-08-31T04:55:07.409Z,0
2017-08-31T04:56:08.038Z,0
2017-08-31T04:57:07.717Z,0
2017-08-31T04:58:07.375Z,0
2017-08-31T04:59:07.381Z,0
2017-08-31T05:00:06.720Z,0
2017-08-31T05:01:07.668Z,0
2017-08-31T05:02:07.335Z,0
2017-08-31T05:03:07.702Z,0
2017-08-31T05:04:07.032Z,0
2017-08-31T05:05:07.353Z,0
2017-08-31T05:06:06.979Z,0
2017-08-31T05:07:07.610Z,0
2017-08-31T05:08:07.266Z,0
2017-08-31T05:09:06.927Z,0
2017-08-31T05:10:06.916Z,0
2017-08-31T05:11:06.912Z,0
2017-08-31T05:12:06.900Z,0
2017-08-31T05:13:07.584Z,0
2017-08-31T05:14:06.877Z,0
2017-08-31T05:15:06.858Z,0
2017-08-31T05:16:07.169Z,0
2017-08-31T05:17:07.805Z,0
2017-08-31T05:18:06.829Z,0
2017-08-31T05:19:07.148Z,0
2017-08-31T05:20:06.806Z,0
2017-08-31T05:21:07.112Z,0
2017-08-31T05:22:07.119Z,0
2017-08-31T05:23:07.140Z,0
2017-08-31T05:24:07.077Z,0
2017-08-31T05:25:06.753Z,0
2017-08-31T05:26:06.740Z,0
2017-08-31T05:27:07.688Z,0
2017-08-31T05:28:06.393Z,0
2017-08-31T05:29:07.031Z,0
2017-08-31T05:30:07.654Z,0
2017-08-31T05:31:06.671Z,0
2017-08-31T05:32:06.987Z,0
2017-08-31T05:33:07.025Z,0
2017-08-31T05:34:07.283Z,0
2017-08-31T05:35:07.605Z,0
2017-08-31T05:36:07.264Z,0
2017-08-31T05:37:07.251Z,0
2017-08-31T05:38:06.923Z,0
2017-08-31T05:39:06.594Z,5
2017-08-31T05:40:06.896Z,5
2017-08-31T05:41:06.880Z,5
2017-08-31T05:42:06.550Z,5
2017-08-31T05:43:07.186Z,5
2017-08-31T05:44:06.524Z,5
2017-08-31T05:45:07.150Z,5
2017-08-31T05:46:06.822Z,5
2017-08-31T05:47:07.130Z,5
2017-08-31T05:48:06.803Z,5
2017-08-31T05:49:06.787Z,5
2017-08-31T05:50:06.455Z,5
2017-08-31T05:51:07.087Z,5
2017-08-31T05:52:06.758Z,5
2017-08-31T05:53:07.310Z,10
2017-08-31T05:54:06.724Z,5
2017-08-31T05:55:07.072Z,5
2017-08-31T05:56:07.061Z,10
2017-08-31T05:57:06.692Z,10
2017-08-31T05:58:06.360Z,10
2017-08-31T05:59:06.991Z,10
2017-08-31T06:00:06.977Z,10
2017-08-31T06:01:06.646Z,10
2017-08-31T06:02:06.632Z,10
2017-08-31T06:03:06.629Z,10
2017-08-31T06:04:06.613Z,10
2017-08-31T06:05:06.279Z,10
2017-08-31T06:06:06.268Z,10
2017-08-31T06:07:06.975Z,10
2017-08-31T06:08:06.572Z,10
2017-08-31T06:09:06.278Z,10
2017-08-31T06:10:06.223Z,10
2017-08-31T06:11:06.848Z,10
2017-08-31T06:12:06.521Z,10
2017-08-31T06:13:06.841Z,10
2017-08-31T06:14:06.541Z,15
2017-08-31T06:15:06.796Z,15
2017-08-31T06:16:07.123Z,15
2017-08-31T06:17:06.460Z,15
2017-08-31T06:18:06.786Z,15
2017-08-31T06:19:06.753Z,20
2017-08-31T06:20:05.775Z,15
2017-08-31T06:21:06.725Z,15
2017-08-31T06:22:06.714Z,15
2017-08-31T06:23:06.069Z,10
2017-08-31T06:24:06.060Z,10
2017-08-31T06:25:06.688Z,10
2017-08-31T06:26:06.673Z,10
2017-08-31T06:27:06.339Z,15
2017-08-31T06:28:06.968Z,15
2017-08-31T06:29:06.364Z,15
2017-08-31T06:30:06.621Z,15
2017-08-31T06:31:06.293Z,20
2017-08-31T06:32:05.969Z,15
2017-08-31T06:33:05.952Z,15
2017-08-31T06:34:06.247Z,20
2017-08-31T06:35:06.238Z,20
2017-08-31T06:36:06.557Z,15
2017-08-31T06:37:06.220Z,15
2017-08-31T06:38:06.527Z,15
2017-08-31T06:39:05.873Z,20
2017-08-31T06:40:06.174Z,20
2017-08-31T06:41:05.853Z,20
2017-08-31T06:42:06.150Z,20
2017-08-31T06:43:05.499Z,25
2017-08-31T06:44:05.808Z,25
2017-08-31T06:45:06.118Z,25
2017-08-31T06:46:06.431Z,20
2017-08-31T06:47:06.111Z,25
2017-08-31T06:48:05.874Z,25
2017-08-31T06:49:06.398Z,25
2017-08-31T06:50:06.063Z,25
2017-08-31T06:51:06.046Z,25
2017-08-31T06:52:06.031Z,25
2017-08-31T06:53:05.902Z,20
2017-08-31T06:54:06.006Z,25
2017-08-31T06:55:05.672Z,20
2017-08-31T06:56:06.304Z,25
2017-08-31T06:57:06.324Z,30
2017-08-31T06:58:06.009Z,30
2017-08-31T06:59:05.627Z,30
2017-08-31T07:00:05.939Z,25
2017-08-31T07:01:05.932Z,25
2017-08-31T07:02:06.232Z,30
2017-08-31T07:03:05.583Z,30
2017-08-31T07:04:05.885Z,30
2017-08-31T07:05:06.253Z,30
2017-08-31T07:06:06.182Z,35
2017-08-31T07:07:05.855Z,35
2017-08-31T07:08:05.843Z,35
2017-08-31T07:09:05.825Z,40
2017-08-31T07:10:05.814Z,35
2017-08-31T07:11:05.485Z,35
2017-08-31T07:12:05.793Z,45
2017-08-31T07:13:05.785Z,45
2017-08-31T07:14:06.093Z,45
2017-08-31T07:15:06.117Z,40
2017-08-31T07:16:06.445Z,40
2017-08-31T07:17:05.739Z,40
2017-08-31T07:18:06.360Z,35
2017-08-31T07:19:05.713Z,45
2017-08-31T07:20:05.702Z,35
2017-08-31T07:21:06.006Z,45
2017-08-31T07:22:06.000Z,45
2017-08-31T07:23:05.657Z,55
2017-08-31T07:24:05.989Z,75
2017-08-31T07:25:04.999Z,70
2017-08-31T07:26:05.945Z,85
2017-08-31T07:27:05.948Z,90
2017-08-31T07:28:05.286Z,80
2017-08-31T07:29:05.589Z,55
2017-08-31T07:30:05.579Z,50
2017-08-31T07:31:05.563Z,50
2017-08-31T07:32:06.192Z,50
2017-08-31T07:33:05.225Z,45
2017-08-31T07:34:05.849Z,40
2017-08-31T07:35:05.516Z,35
2017-08-31T07:36:05.830Z,40
2017-08-31T07:37:05.174Z,40
2017-08-31T07:38:05.160Z,50
2017-08-31T07:39:05.475Z,50
2017-08-31T07:40:05.453Z,45
2017-08-31T07:41:05.451Z,55
2017-08-31T07:42:05.436Z,55
2017-08-31T07:43:05.426Z,70
2017-08-31T07:44:05.406Z,80
2017-08-31T07:45:05.724Z,110
2017-08-31T07:46:05.705Z,115
2017-08-31T07:47:05.051Z,125
2017-08-31T07:48:05.682Z,160
2017-08-31T07:49:05.033Z,130
2017-08-31T07:50:05.342Z,135
2017-08-31T07:51:05.649Z,115
2017-08-31T07:52:04.678Z,90
2017-08-31T07:53:04.983Z,85
2017-08-31T07:54:05.292Z,90
2017-08-31T07:55:04.956Z,95
2017-08-31T07:56:05.269Z,100
2017-08-31T07:57:05.581Z,75
2017-08-31T07:58:05.564Z,70
2017-08-31T07:59:04.913Z,70
2017-08-31T08:00:05.222Z,75
2017-08-31T08:01:05.204Z,85
2017-08-31T08:02:05.519Z,90
2017-08-31T08:03:04.863Z,85
2017-08-31T08:04:05.171Z,85
2017-08-31T08:05:05.816Z,95
2017-08-31T08:06:05.493Z,85
2017-08-31T08:07:05.457Z,90
2017-08-31T08:08:05.125Z,105
2017-08-31T08:09:05.169Z,90
2017-08-31T08:10:05.150Z,75
2017-08-31T08:11:05.099Z,95
2017-08-31T08:12:05.112Z,95
2017-08-31T08:13:05.126Z,95
2017-08-31T08:14:05.064Z,100
2017-08-31T08:15:05.043Z,95
2017-08-31T08:16:04.724Z,90
2017-08-31T08:17:05.279Z,65
2017-08-31T08:18:05.017Z,60
2017-08-31T08:19:05.000Z,65
2017-08-31T08:20:05.317Z,55
2017-08-31T08:21:05.619Z,50
2017-08-31T08:22:05.606Z,60
2017-08-31T08:23:05.615Z,75
2017-08-31T08:24:04.946Z,90
2017-08-31T08:25:04.938Z,105
2017-08-31T08:26:04.627Z,95
2017-08-31T08:27:04.597Z,75
2017-08-31T08:28:04.932Z,55
2017-08-31T08:29:04.953Z,45
2017-08-31T08:30:05.195Z,55
2017-08-31T08:31:04.858Z,55
2017-08-31T08:32:04.532Z,80
2017-08-31T08:33:04.848Z,75
2017-08-31T08:34:04.833Z,75
2017-08-31T08:35:04.228Z,80
2017-08-31T08:36:04.482Z,75
2017-08-31T08:37:05.451Z,65
2017-08-31T08:38:04.512Z,55
2017-08-31T08:39:05.419Z,65
2017-08-31T08:40:04.829Z,90
2017-08-31T08:41:05.074Z,75
2017-08-31T08:42:04.428Z,60
2017-08-31T08:43:05.053Z,65
2017-08-31T08:44:04.716Z,85
2017-08-31T08:45:04.385Z,85
2017-08-31T08:46:05.025Z,65
2017-08-31T08:47:04.368Z,70
2017-08-31T08:48:04.353Z,110
2017-08-31T08:49:04.979Z,160
2017-08-31T08:50:04.981Z,205
2017-08-31T08:51:05.299Z,195
2017-08-31T08:52:04.352Z,185
2017-08-31T08:53:04.613Z,210
2017-08-31T08:54:04.921Z,170
2017-08-31T08:55:04.277Z,175
2017-08-31T08:56:05.238Z,150
2017-08-31T08:57:04.254Z,135
2017-08-31T08:58:05.198Z,165
2017-08-31T08:59:04.876Z,200
2017-08-31T09:00:04.216Z,210
2017-08-31T09:01:04.849Z,180
2017-08-31T09:02:04.519Z,130
2017-08-31T09:03:04.845Z,130
2017-08-31T09:04:04.180Z,145
2017-08-31T09:05:04.518Z,145
2017-08-31T09:06:04.799Z,155
2017-08-31T09:07:04.464Z,200
2017-08-31T09:08:04.140Z,170
2017-08-31T09:09:05.086Z,135
2017-08-31T09:10:03.801Z,130
2017-08-31T09:11:04.758Z,115
2017-08-31T09:12:04.093Z,125
2017-08-31T09:13:04.085Z,120
2017-08-31T09:14:04.104Z,145
2017-08-31T09:15:05.266Z,125
2017-08-31T09:16:04.688Z,80
2017-08-31T09:17:04.355Z,80
2017-08-31T09:18:04.359Z,110
2017-08-31T09:19:04.330Z,95
2017-08-31T09:20:04.323Z,120
2017-08-31T09:21:03.988Z,105
2017-08-31T09:22:04.303Z,80
2017-08-31T09:23:04.292Z,60
2017-08-31T09:24:04.013Z,45
2017-08-31T09:25:03.630Z,40
2017-08-31T09:26:03.666Z,40
2017-08-31T09:27:04.258Z,45
2017-08-31T09:28:03.915Z,45
2017-08-31T09:29:03.910Z,55
2017-08-31T09:30:04.226Z,65
2017-08-31T09:31:04.274Z,90
2017-08-31T09:32:03.883Z,70
2017-08-31T09:33:04.189Z,65
2017-08-31T09:34:03.536Z,85
2017-08-31T09:35:03.840Z,70
2017-08-31T09:36:04.498Z,65
2017-08-31T09:37:04.468Z,115
2017-08-31T09:38:03.807Z,155
2017-08-31T09:39:03.853Z,150
2017-08-31T09:40:03.810Z,95
2017-08-31T09:41:04.098Z,80
2017-08-31T09:42:04.409Z,90
2017-08-31T09:43:04.077Z,90
2017-08-31T09:44:04.382Z,80
2017-08-31T09:45:04.381Z,90
2017-08-31T09:46:04.439Z,105
2017-08-31T09:47:04.041Z,110
2017-08-31T09:48:04.036Z,140
2017-08-31T09:49:04.028Z,150
2017-08-31T09:50:04.009Z,140
2017-08-31T09:51:03.995Z,160
2017-08-31T09:52:03.995Z,180
2017-08-31T09:53:04.314Z,190
2017-08-31T09:54:03.954Z,190
2017-08-31T09:55:04.264Z,200
2017-08-31T09:56:04.276Z,230
2017-08-31T09:57:04.274Z,265
2017-08-31T09:58:03.602Z,295
2017-08-31T09:59:03.913Z,290
2017-08-31T10:00:04.548Z,285
2017-08-31T10:01:04.200Z,280
2017-08-31T10:02:04.185Z,285
2017-08-31T10:03:03.856Z,300
2017-08-31T10:04:04.181Z,250
2017-08-31T10:05:03.844Z,275
2017-08-31T10:06:03.514Z,275
2017-08-31T10:07:03.868Z,255
2017-08-31T10:08:04.644Z,265
2017-08-31T10:09:03.477Z,275
2017-08-31T10:10:03.467Z,225
2017-08-31T10:11:04.097Z,180
2017-08-31T10:12:03.767Z,155
2017-08-31T10:13:03.125Z,150
2017-08-31T10:14:03.749Z,140
2017-08-31T10:15:03.100Z,130
2017-08-31T10:16:03.454Z,130
2017-08-31T10:17:03.497Z,175
2017-08-31T10:18:03.454Z,165
2017-08-31T10:19:03.714Z,120
2017-08-31T10:20:03.405Z,105
2017-08-31T10:21:03.357Z,120
2017-08-31T10:22:03.695Z,145
2017-08-31T10:23:03.664Z,190
2017-08-31T10:24:03.365Z,220
2017-08-31T10:25:03.971Z,245
2017-08-31T10:26:03.306Z,230
2017-08-31T10:27:03.365Z,215
2017-08-31T10:28:03.656Z,200
2017-08-31T10:29:03.594Z,195
2017-08-31T10:30:03.263Z,195
2017-08-31T10:31:03.900Z,205
2017-08-31T10:32:04.216Z,225
2017-08-31T10:33:02.911Z,265
2017-08-31T10:34:03.225Z,295
2017-08-31T10:35:02.893Z,280
2017-08-31T10:36:03.520Z,230
2017-08-31T10:37:03.834Z,230
2017-08-31T10:38:03.518Z,205
2017-08-31T10:39:03.245Z,200
2017-08-31T10:40:03.806Z,175
2017-08-31T10:41:03.471Z,170
2017-08-31T10:42:03.833Z,170
2017-08-31T10:43:03.806Z,185
2017-08-31T10:44:03.459Z,210
2017-08-31T10:45:02.800Z,235
2017-08-31T10:46:03.760Z,285
2017-08-31T10:47:03.423Z,325
2017-08-31T10:48:04.098Z,360
2017-08-31T10:49:03.391Z,345
2017-08-31T10:50:03.385Z,240
2017-08-31T10:51:03.055Z,280
2017-08-31T10:52:03.375Z,150
2017-08-31T10:53:03.692Z,155
2017-08-31T10:54:02.719Z,240
2017-08-31T10:55:03.667Z,310
2017-08-31T10:56:03.004Z,375
2017-08-31T10:57:03.323Z,445
2017-08-31T10:58:02.992Z,460
2017-08-31T10:59:02.984Z,435
2017-08-31T11:00:02.964Z,390
2017-08-31T11:01:03.015Z,450
2017-08-31T11:02:03.914Z,480
2017-08-31T11:03:02.938Z,545
2017-08-31T11:04:03.574Z,615
2017-08-31T11:05:03.251Z,530
2017-08-31T11:06:03.885Z,420
2017-08-31T11:07:03.221Z,260
2017-08-31T11:08:03.232Z,235
2017-08-31T11:09:03.209Z,250
2017-08-31T11:10:03.573Z,230
2017-08-31T11:11:03.511Z,250
2017-08-31T11:12:03.817Z,250
2017-08-31T11:13:03.174Z,235
2017-08-31T11:14:03.863Z,220
2017-08-31T11:15:03.157Z,215
2017-08-31T11:16:03.789Z,230
2017-08-31T11:17:03.171Z,235
2017-08-31T11:18:03.132Z,245
2017-08-31T11:19:03.441Z,260
2017-08-31T11:20:03.458Z,290
2017-08-31T11:21:03.763Z,325
2017-08-31T11:22:03.113Z,340
2017-08-31T11:23:02.868Z,290
2017-08-31T11:24:03.415Z,300
2017-08-31T11:25:03.122Z,315
2017-08-31T11:26:03.386Z,315
2017-08-31T11:27:02.743Z,345
2017-08-31T11:28:03.388Z,365
2017-08-31T11:29:03.013Z,430
2017-08-31T11:30:03.336Z,505
2017-08-31T11:31:03.687Z,570
2017-08-31T11:32:04.148Z,505
2017-08-31T11:33:04.165Z,540
2017-08-31T11:34:03.888Z,560
2017-08-31T11:35:03.261Z,545
2017-08-31T11:36:03.368Z,425
2017-08-31T11:37:03.706Z,255
2017-08-31T11:38:02.985Z,220
2017-08-31T11:39:03.281Z,175
2017-08-31T11:40:03.267Z,170
2017-08-31T11:41:03.581Z,175
2017-08-31T11:42:02.616Z,200
2017-08-31T11:43:02.918Z,195
2017-08-31T11:44:02.620Z,145
2017-08-31T11:45:02.901Z,105
2017-08-31T11:46:03.238Z,90
2017-08-31T11:47:02.566Z,105
2017-08-31T11:48:02.557Z,125
2017-08-31T11:49:03.188Z,135
2017-08-31T11:50:02.862Z,165
2017-08-31T11:51:02.848Z,215
2017-08-31T11:52:02.567Z,255
2017-08-31T11:53:03.165Z,285
2017-08-31T11:54:02.184Z,300
2017-08-31T11:55:03.460Z,330
2017-08-31T11:56:02.808Z,350
2017-08-31T11:57:03.470Z,365
2017-08-31T11:58:03.114Z,405
2017-08-31T11:59:03.112Z,380
2017-08-31T12:00:02.126Z,400
2017-08-31T12:01:02.778Z,500
2017-08-31T12:02:03.402Z,550
2017-08-31T12:03:03.090Z,490
2017-08-31T12:04:03.380Z,385
2017-08-31T12:05:02.744Z,335
2017-08-31T12:06:02.721Z,260
2017-08-31T12:07:03.103Z,285
2017-08-31T12:08:02.900Z,315
2017-08-31T12:09:02.695Z,305
2017-08-31T12:10:02.685Z,265
2017-08-31T12:11:02.357Z,305
2017-08-31T12:12:02.995Z,345
2017-08-31T12:13:02.661Z,410
2017-08-31T12:14:02.027Z,1410
2017-08-31T12:15:02.325Z,1240
2017-08-31T12:16:02.953Z,915
2017-08-31T12:17:02.954Z,2060
2017-08-31T12:18:02.934Z,740
2017-08-31T12:19:03.257Z,660
2017-08-31T12:20:02.608Z,620
2017-08-31T12:21:02.924Z,490
2017-08-31T12:22:02.920Z,915
2017-08-31T12:23:02.911Z,455
2017-08-31T12:24:02.268Z,480
2017-08-31T12:25:02.895Z,340
2017-08-31T12:26:03.212Z,340
2017-08-31T12:27:02.562Z,270
2017-08-31T12:28:01.944Z,285
2017-08-31T12:29:02.237Z,385
2017-08-31T12:30:02.872Z,380
2017-08-31T12:31:02.869Z,420
2017-08-31T12:32:02.586Z,1205
2017-08-31T12:33:02.529Z,1650
2017-08-31T12:34:02.841Z,340
2017-08-31T12:35:03.170Z,230
2017-08-31T12:36:02.514Z,200
2017-08-31T12:37:02.506Z,190
2017-08-31T12:38:02.817Z,230
2017-08-31T12:39:02.494Z,270
2017-08-31T12:40:02.813Z,280
2017-08-31T12:41:02.482Z,340
2017-08-31T12:42:02.157Z,735
2017-08-31T12:43:02.521Z,470
2017-08-31T12:44:03.108Z,405
2017-08-31T12:45:02.785Z,545
2017-08-31T12:46:01.806Z,1535
2017-08-31T12:47:01.802Z,275
2017-08-31T12:48:02.815Z,160
2017-08-31T12:49:02.756Z,100
2017-08-31T12:50:02.776Z,60
2017-08-31T12:51:02.417Z,60
2017-08-31T12:52:02.099Z,60
2017-08-31T12:53:02.404Z,60
2017-08-31T12:54:02.082Z,45
2017-08-31T12:55:02.446Z,40
2017-08-31T12:56:02.118Z,45
2017-08-31T12:57:02.718Z,45
2017-08-31T12:58:03.020Z,50
2017-08-31T12:59:02.050Z,70
2017-08-31T13:00:02.371Z,110
2017-08-31T13:01:02.675Z,200
2017-08-31T13:02:02.403Z,270
2017-08-31T13:03:02.701Z,375
2017-08-31T13:04:02.412Z,340
2017-08-31T13:05:02.061Z,350
2017-08-31T13:06:02.964Z,370
2017-08-31T13:07:01.986Z,345
2017-08-31T13:08:02.674Z,380
2017-08-31T13:09:02.631Z,390
2017-08-31T13:10:01.972Z,385
2017-08-31T13:11:01.964Z,375
2017-08-31T13:12:02.648Z,360
2017-08-31T13:13:02.266Z,355
2017-08-31T13:14:02.582Z,370
2017-08-31T13:15:01.929Z,390
2017-08-31T13:16:02.567Z,615
2017-08-31T13:17:02.238Z,515
2017-08-31T13:18:02.551Z,545
2017-08-31T13:19:02.554Z,445
2017-08-31T13:20:01.896Z,410
2017-08-31T13:21:02.522Z,395
2017-08-31T13:22:01.880Z,390
2017-08-31T13:23:01.876Z,410
2017-08-31T13:24:01.862Z,430
2017-08-31T13:25:02.508Z,450
2017-08-31T13:26:02.177Z,480
2017-08-31T13:27:02.486Z,690
2017-08-31T13:28:02.538Z,800
2017-08-31T13:29:02.485Z,580
2017-08-31T13:30:02.146Z,655
2017-08-31T13:31:01.827Z,520
2017-08-31T13:32:02.454Z,455
2017-08-31T13:33:02.127Z,375
2017-08-31T13:34:02.443Z,305
2017-08-31T13:35:01.796Z,280
2017-08-31T13:36:02.135Z,285
2017-08-31T13:37:02.138Z,240
2017-08-31T13:38:02.749Z,180
2017-08-31T13:39:02.426Z,185
2017-08-31T13:40:02.457Z,180
2017-08-31T13:41:01.442Z,160
2017-08-31T13:42:02.400Z,180
2017-08-31T13:43:02.441Z,155
2017-08-31T13:44:02.387Z,80
2017-08-31T13:45:01.743Z,35
2017-08-31T13:46:02.380Z,25
2017-08-31T13:47:02.061Z,30
2017-08-31T13:48:02.048Z,35
2017-08-31T13:49:02.674Z,35
2017-08-31T13:50:01.704Z,35
2017-08-31T13:51:02.012Z,35
2017-08-31T13:52:02.335Z,50
2017-08-31T13:53:02.008Z,60
2017-08-31T13:54:01.685Z,60
2017-08-31T13:55:01.989Z,60
2017-08-31T13:56:01.666Z,55
2017-08-31T13:57:01.969Z,45
2017-08-31T13:58:02.332Z,40
2017-08-31T13:59:02.615Z,35
2017-08-31T14:00:02.279Z,30
2017-08-31T14:01:01.959Z,30
2017-08-31T14:02:01.286Z,30
2017-08-31T14:03:02.244Z,30
2017-08-31T14:04:01.920Z,35
2017-08-31T14:05:01.586Z,35
2017-08-31T14:06:02.224Z,40
2017-08-31T14:07:01.919Z,40
2017-08-31T14:08:02.081Z,45
2017-08-31T14:09:02.210Z,55
2017-08-31T14:10:01.866Z,65
2017-08-31T14:11:02.177Z,75
2017-08-31T14:12:02.192Z,85
2017-08-31T14:13:01.829Z,100
2017-08-31T14:14:02.139Z,115
2017-08-31T14:15:01.500Z,115
2017-08-31T14:16:02.124Z,115
2017-08-31T14:17:02.114Z,115
2017-08-31T14:18:01.783Z,115
2017-08-31T14:19:01.457Z,120
2017-08-31T14:20:01.764Z,115
2017-08-31T14:21:01.751Z,115
2017-08-31T14:22:02.066Z,115
2017-08-31T14:23:01.749Z,120
2017-08-31T14:24:01.731Z,120
2017-08-31T14:25:01.401Z,125
2017-08-31T14:26:01.383Z,135
2017-08-31T14:27:02.020Z,140
2017-08-31T14:28:01.687Z,155
2017-08-31T14:29:02.002Z,165
2017-08-31T14:30:01.673Z,175
2017-08-31T14:31:01.669Z,190
2017-08-31T14:32:01.983Z,205